createdAt,value
2023-01-04T00:01:36.318Z,102244.52
2023-01-04T00:04:04.355Z,102246.80
2023-01-04T00:06:32.316Z,102242.64
2023-01-04T00:09:00.357Z,102240.12
2023-01-04T00:11:28.457Z,102234.76
2023-01-04T00:13:59.231Z,102231.71
2023-01-04T00:16:28.545Z,102223.45
2023-01-04T00:18:57.689Z,102224.27
2023-01-04T00:21:28.408Z,102215.98
2023-01-04T00:24:01.460Z,102216.38
2023-01-04T00:26:31.465Z,102222.73
2023-01-04T00:29:03.097Z,102213.94
2023-01-04T00:31:33.539Z,102208.08
2023-01-04T00:34:04.012Z,102212.11
2023-01-04T00:36:33.372Z,102211.00
2023-01-04T00:39:09.130Z,102213.64
2023-01-04T00:42:00.373Z,102211.96
2023-01-04T00:44:30.973Z,102209.36
2023-01-04T00:47:00.365Z,102206.27
2023-01-04T00:49:29.929Z,102201.59
2023-01-04T00:51:58.236Z,102200.52
2023-01-04T00:54:26.386Z,102195.40
2023-01-04T00:56:54.350Z,102192.11
2023-01-04T00:59:22.977Z,102187.52
2023-01-04T01:01:51.937Z,102189.75
2023-01-04T01:04:23.029Z,102191.39
2023-01-04T01:06:52.436Z,102189.55
2023-01-04T01:09:23.012Z,102185.80
2023-01-04T01:11:53.444Z,102182.77
2023-01-04T01:14:25.129Z,102183.13
2023-01-04T01:16:57.551Z,102180.79
2023-01-04T01:19:29.787Z,102177.63
2023-01-04T01:21:58.593Z,102173.88
2023-01-04T01:24:27.710Z,102171.15
2023-01-04T01:26:56.632Z,102167.60
2023-01-04T01:29:25.122Z,102167.08
2023-01-04T01:31:53.403Z,102164.52
2023-01-04T01:34:22.036Z,102166.95
2023-01-04T01:36:50.486Z,102163.95
2023-01-04T01:39:18.563Z,102159.19
2023-01-04T01:41:46.498Z,102157.77
2023-01-04T01:44:42.487Z,102149.53
2023-01-04T01:47:25.288Z,102138.54
2023-01-04T01:49:54.505Z,102141.64
2023-01-04T01:52:35.212Z,102138.31
2023-01-04T01:55:07.412Z,102135.33
2023-01-04T01:57:37.866Z,102125.50
2023-01-04T02:00:13.341Z,102117.66
2023-01-04T02:03:09.062Z,102122.36
2023-01-04T02:05:37.796Z,102113.88
2023-01-04T02:08:07.793Z,102110.23
2023-01-04T02:10:36.311Z,102105.80
2023-01-04T02:13:10.481Z,102101.09
2023-01-04T02:16:16.121Z,102103.13
2023-01-04T02:18:56.483Z,102098.28
2023-01-04T02:21:51.371Z,102089.23
2023-01-04T02:24:22.202Z,102084.57
2023-01-04T02:27:11.945Z,102093.45
2023-01-04T02:29:58.808Z,102093.19
2023-01-04T02:32:37.443Z,102079.05
2023-01-04T02:35:08.300Z,102079.64
2023-01-04T02:37:42.063Z,102069.88
2023-01-04T02:40:28.452Z,102075.52
2023-01-04T02:43:48.424Z,102065.63
2023-01-04T02:46:26.376Z,102067.10
2023-01-04T02:49:13.024Z,102056.66
2023-01-04T02:51:40.932Z,102051.13
2023-01-04T02:54:15.877Z,102055.73
2023-01-04T02:57:05.808Z,102052.82
2023-01-04T02:59:55.898Z,102052.56
2023-01-04T03:03:13.437Z,102047.64
2023-01-04T03:06:17.546Z,102035.47
2023-01-04T03:09:03.669Z,102023.36
2023-01-04T03:11:59.453Z,102016.00
2023-01-04T03:14:33.799Z,102017.08
2023-01-04T03:17:06.842Z,102010.22
2023-01-04T03:19:55.160Z,102000.14
2023-01-04T03:22:55.216Z,101989.23
2023-01-04T03:26:01.276Z,101989.30
2023-01-04T03:28:53.524Z,101987.02
2023-01-04T03:31:49.350Z,101991.33
2023-01-04T03:34:36.599Z,101978.20
2023-01-04T03:37:23.694Z,101975.00
2023-01-04T03:40:35.408Z,101972.13
2023-01-04T03:43:36.811Z,101974.30
2023-01-04T03:46:31.755Z,101981.16
2023-01-04T03:49:12.751Z,101988.21
2023-01-04T03:51:42.378Z,101986.48
2023-01-04T03:54:38.058Z,101984.87
2023-01-04T03:57:07.909Z,101984.83
2023-01-04T03:59:41.672Z,101979.69
2023-01-04T04:02:14.330Z,101978.22
2023-01-04T04:05:01.089Z,101974.60
2023-01-04T04:07:47.949Z,101977.64
2023-01-04T04:10:15.938Z,101978.48
2023-01-04T04:12:44.014Z,101974.90
2023-01-04T04:15:11.915Z,101975.90
2023-01-04T04:17:39.845Z,101974.40
2023-01-04T04:20:08.276Z,101974.35
2023-01-04T04:22:36.266Z,101966.03
2023-01-04T04:25:04.493Z,101960.00
2023-01-04T04:27:32.454Z,101953.69
2023-01-04T04:30:00.312Z,101945.05
2023-01-04T04:32:28.353Z,101932.17
2023-01-04T04:34:56.324Z,101918.31
2023-01-04T04:37:27.038Z,101906.70
2023-01-04T04:39:55.046Z,101898.39
2023-01-04T04:42:22.993Z,101890.87
2023-01-04T04:44:50.862Z,101886.89
2023-01-04T04:47:18.792Z,101873.32
2023-01-04T04:49:46.747Z,101870.12
2023-01-04T04:52:17.026Z,101865.37
2023-01-04T04:54:44.882Z,101857.22
2023-01-04T04:57:12.965Z,101851.15
2023-01-04T04:59:40.825Z,101847.95
2023-01-04T05:02:08.973Z,101847.25
2023-01-04T05:04:37.009Z,101842.67
2023-01-04T05:07:10.637Z,101840.87
2023-01-04T05:09:40.455Z,101846.83
2023-01-04T05:12:30.726Z,101847.42
2023-01-04T05:14:58.707Z,101841.58
2023-01-04T05:17:26.830Z,101835.02
2023-01-04T05:19:54.727Z,101831.30
2023-01-04T05:22:22.687Z,101825.34
2023-01-04T05:24:50.624Z,101822.65
2023-01-04T05:27:18.546Z,101822.17
2023-01-04T05:30:05.114Z,101815.31
2023-01-04T05:32:33.154Z,101810.42
2023-01-04T05:35:02.126Z,101811.52
2023-01-04T05:37:31.016Z,101804.51
2023-01-04T05:40:02.470Z,101804.76
2023-01-04T05:42:31.200Z,101802.29
2023-01-04T05:45:00.065Z,101802.39
2023-01-04T05:47:29.167Z,101803.99
2023-01-04T05:49:57.563Z,101791.73
2023-01-04T05:52:26.030Z,101793.38
2023-01-04T05:54:54.185Z,101783.94
2023-01-04T05:57:22.952Z,101785.99
2023-01-04T05:59:51.633Z,101778.25
2023-01-04T06:02:30.152Z,101776.98
2023-01-04T06:05:00.270Z,101773.18
2023-01-04T06:07:29.772Z,101762.19
2023-01-04T06:09:58.240Z,101753.04
2023-01-04T06:12:26.464Z,101746.68
2023-01-04T06:14:54.489Z,101741.13
2023-01-04T06:17:22.441Z,101739.58
2023-01-04T06:19:53.488Z,101733.50
2023-01-04T06:22:21.663Z,101727.88
2023-01-04T06:24:49.604Z,101721.45
2023-01-04T06:27:17.567Z,101721.42
2023-01-04T06:29:45.572Z,101717.25
2023-01-04T06:32:13.475Z,101711.11
2023-01-04T06:34:41.408Z,101707.86
2023-01-04T06:37:10.075Z,101700.21
2023-01-04T06:39:38.422Z,101693.75
2023-01-04T06:42:26.839Z,101682.08
2023-01-04T06:44:54.898Z,101675.42
2023-01-04T06:47:22.829Z,101678.15
2023-01-04T06:49:50.933Z,101679.33
2023-01-04T06:52:19.340Z,101686.27
2023-01-04T06:54:47.541Z,101689.67
2023-01-04T06:57:15.732Z,101692.66
2023-01-04T06:59:43.589Z,101693.20
2023-01-04T07:02:15.188Z,101694.38
2023-01-04T07:04:43.702Z,101686.86
2023-01-04T07:07:11.839Z,101676.57
2023-01-04T07:09:39.785Z,101675.55
2023-01-04T07:12:07.766Z,101665.52
2023-01-04T07:14:36.820Z,101660.23
2023-01-04T07:17:07.690Z,101656.54
2023-01-04T07:19:36.759Z,101648.63
2023-01-04T07:22:05.514Z,101647.14
2023-01-04T07:24:34.015Z,101641.73
2023-01-04T07:27:02.406Z,101642.13
2023-01-04T07:29:30.878Z,101641.62
2023-01-04T07:31:59.592Z,101644.35
2023-01-04T07:34:29.345Z,101644.27
2023-01-04T07:36:57.592Z,101632.77
2023-01-04T07:39:25.694Z,101630.09
2023-01-04T07:41:53.579Z,101625.23
2023-01-04T07:44:21.856Z,101622.19
2023-01-04T07:46:50.024Z,101613.12
2023-01-04T07:49:20.953Z,101608.75
2023-01-04T07:51:50.007Z,101601.77
2023-01-04T07:54:19.065Z,101596.41
2023-01-04T07:56:48.591Z,101590.55
2023-01-04T07:59:18.384Z,101583.50
2023-01-04T08:01:47.945Z,101581.41
2023-01-04T08:04:23.153Z,101576.80
2023-01-04T08:06:51.619Z,101575.04
2023-01-04T08:09:20.021Z,101567.30
2023-01-04T08:11:48.145Z,101561.09
2023-01-04T08:14:16.153Z,101553.83
2023-01-04T08:16:44.497Z,101548.56
2023-01-04T08:19:19.561Z,101539.72
2023-01-04T08:21:48.559Z,101539.33
2023-01-04T08:24:19.225Z,101529.38
2023-01-04T08:26:47.547Z,101521.62
2023-01-04T08:29:16.032Z,101518.73
2023-01-04T08:31:44.321Z,101511.39
2023-01-04T08:34:12.738Z,101504.30
2023-01-04T08:36:48.118Z,101500.59
2023-01-04T08:39:16.587Z,101487.56
2023-01-04T08:42:00.825Z,101485.36
2023-01-04T08:44:35.093Z,101475.27
2023-01-04T08:47:03.588Z,101469.98
2023-01-04T08:49:31.780Z,101463.41
2023-01-04T08:52:00.094Z,101457.12
2023-01-04T08:54:28.182Z,101455.45
2023-01-04T08:56:58.468Z,101451.44
2023-01-04T08:59:26.745Z,101451.17
2023-01-04T09:01:58.511Z,101441.03
2023-01-04T09:04:30.850Z,101432.66
2023-01-04T09:06:59.201Z,101428.41
2023-01-04T09:09:27.456Z,101423.44
2023-01-04T09:11:55.647Z,101418.08
2023-01-04T09:14:24.354Z,101411.98
2023-01-04T09:16:52.388Z,101402.44
2023-01-04T09:19:22.458Z,101397.98
2023-01-04T09:21:51.119Z,101393.69
2023-01-04T09:24:19.361Z,101394.24
2023-01-04T09:26:47.581Z,101387.61
2023-01-04T09:29:15.702Z,101386.73
2023-01-04T09:31:43.727Z,101378.30
2023-01-04T09:34:15.139Z,101369.40
2023-01-04T09:36:46.974Z,101366.27
2023-01-04T09:39:24.037Z,101361.85
2023-01-04T09:42:00.004Z,101354.03
2023-01-04T09:45:21.497Z,101344.34
2023-01-04T09:47:45.118Z,101334.21
2023-01-04T09:50:15.505Z,101324.55
2023-01-04T09:52:51.308Z,101309.83
2023-01-04T09:55:36.911Z,101297.64
2023-01-04T09:58:14.060Z,101283.45
2023-01-04T10:00:50.205Z,101279.27
2023-01-04T10:03:26.109Z,101275.48
2023-01-04T10:05:56.226Z,101261.42
2023-01-04T10:08:24.495Z,101255.52
2023-01-04T10:11:18.316Z,101248.50
2023-01-04T10:13:51.966Z,101236.77
2023-01-04T10:21:12.897Z,101218.23
2023-01-04T10:22:45.737Z,101216.98
2023-01-04T10:25:39.373Z,101213.73
2023-01-04T10:28:20.189Z,101206.29
2023-01-04T10:30:48.147Z,101194.02
2023-01-04T10:33:27.355Z,101184.23
2023-01-04T10:35:56.733Z,101177.23
2023-01-04T10:38:30.141Z,101174.73
2023-01-04T10:41:02.796Z,101171.50
2023-01-04T10:44:09.833Z,101165.89
2023-01-04T10:46:49.301Z,101157.94
2023-01-04T10:52:52.946Z,101148.64
2023-01-04T10:56:24.953Z,101140.20
2023-01-04T10:59:05.330Z,101129.30
2023-01-04T11:01:44.371Z,101129.70
2023-01-04T11:04:28.134Z,101127.55
2023-01-04T11:07:22.484Z,101118.07
2023-01-04T11:09:55.668Z,101119.38
2023-01-04T11:12:24.948Z,101119.70
2023-01-04T11:14:54.977Z,101117.17
2023-01-04T11:17:25.286Z,101113.70
2023-01-04T11:21:07.215Z,101108.28
2023-01-04T11:23:35.396Z,101101.48
2023-01-04T11:26:13.416Z,101097.88
2023-01-04T11:28:47.818Z,101090.10
2023-01-04T11:31:26.934Z,101083.10
2023-01-04T11:34:01.569Z,101078.19
2023-01-04T11:36:44.788Z,101070.27
2023-01-04T11:39:25.215Z,101064.73
2023-01-04T11:42:02.910Z,101054.75
2023-01-04T11:44:34.477Z,101047.64
2023-01-04T11:47:16.810Z,101035.66
2023-01-04T11:49:46.397Z,101032.30
2023-01-04T11:52:27.689Z,101024.83
2023-01-04T11:54:55.883Z,101012.15
2023-01-04T11:57:24.002Z,101004.63
2023-01-04T12:00:10.844Z,101000.73
2023-01-04T12:05:32.496Z,100978.33
2023-01-04T12:08:00.726Z,100973.39
2023-01-04T12:10:29.899Z,100963.30
2023-01-04T12:13:01.678Z,100958.44
2023-01-04T12:15:40.293Z,100955.16
2023-01-04T12:18:19.599Z,100946.41
2023-01-04T12:20:47.921Z,100939.53
2023-01-04T12:23:16.521Z,100937.71
2023-01-04T12:25:49.143Z,100930.40
2023-01-04T12:28:35.261Z,100925.50
2023-01-04T12:31:21.035Z,100920.58
2023-01-04T12:33:52.201Z,100907.13
2023-01-04T12:36:43.157Z,100905.11
2023-01-04T12:39:14.423Z,100893.36
2023-01-04T12:42:00.766Z,100888.60
2023-01-04T12:44:43.326Z,100880.33
2023-01-04T12:47:39.463Z,100869.20
2023-01-04T12:50:13.827Z,100862.38
2023-01-04T12:55:44.930Z,100850.30
2023-01-04T12:58:49.690Z,100849.25
2023-01-04T13:01:29.328Z,100839.85
2023-01-04T13:04:05.455Z,100834.30
2023-01-04T13:06:42.932Z,100831.21
2023-01-04T13:09:25.452Z,100827.36
2023-01-04T13:12:12.961Z,100830.47
2023-01-04T13:14:50.509Z,100822.41
2023-01-04T13:17:19.297Z,100811.05
2023-01-04T13:19:48.748Z,100806.09
2023-01-04T13:22:29.211Z,100797.68
2023-01-04T13:25:03.533Z,100791.71
2023-01-04T13:27:32.096Z,100785.02
2023-01-04T13:30:03.445Z,100778.67
2023-01-04T13:32:59.444Z,100775.98
2023-01-04T13:35:27.495Z,100774.14
2023-01-04T13:37:56.626Z,100769.28
2023-01-04T13:40:35.944Z,100766.75
2023-01-04T13:43:17.014Z,100760.14
2023-01-04T13:46:21.443Z,100762.26
2023-01-04T13:48:53.609Z,100749.95
2023-01-04T13:51:36.292Z,100751.75
2023-01-04T13:54:17.421Z,100746.92
2023-01-04T13:56:49.906Z,100739.55
2023-01-04T13:59:23.706Z,100742.08
2023-01-04T14:01:55.851Z,100740.00
2023-01-04T14:04:30.188Z,100737.98
2023-01-04T14:07:01.772Z,100737.31
2023-01-04T14:09:35.652Z,100731.96
2023-01-04T14:12:17.516Z,100734.92
2023-01-04T14:14:49.226Z,100733.06
2023-01-04T14:17:52.253Z,100725.88
2023-01-04T14:20:26.541Z,100719.73
2023-01-04T14:22:58.034Z,100718.77
2023-01-04T14:25:45.188Z,100719.70
2023-01-04T14:28:20.015Z,100711.66
2023-01-04T14:30:54.062Z,100703.05
2023-01-04T14:33:35.128Z,100702.80
2023-01-04T14:36:10.015Z,100695.61
2023-01-04T14:38:59.627Z,100690.88
2023-01-04T14:41:39.409Z,100681.92
2023-01-04T14:44:11.907Z,100679.52
2023-01-04T14:46:43.715Z,100671.84
2023-01-04T14:49:13.747Z,100669.08
2023-01-04T14:51:48.651Z,100664.34
2023-01-04T14:54:24.686Z,100650.69
2023-01-04T14:56:57.535Z,100644.20
2023-01-04T14:59:26.893Z,100641.56
2023-01-04T15:01:56.618Z,100632.75
2023-01-04T15:04:25.758Z,100629.17
2023-01-04T15:06:55.752Z,100627.15
2023-01-04T15:09:33.509Z,100618.70
2023-01-04T15:12:02.950Z,100613.25
2023-01-04T15:14:34.930Z,100609.01
2023-01-04T15:17:03.346Z,100601.90
2023-01-04T15:19:37.455Z,100592.33
2023-01-04T15:22:06.792Z,100596.95
2023-01-04T15:24:35.726Z,100595.22
2023-01-04T15:27:05.075Z,100589.41
2023-01-04T15:29:35.359Z,100582.41
2023-01-04T15:32:04.836Z,100582.26
2023-01-04T15:34:33.454Z,100577.70
2023-01-04T15:37:01.891Z,100576.30
2023-01-04T15:39:31.316Z,100574.20
2023-01-04T15:42:18.783Z,100568.16
2023-01-04T15:44:47.486Z,100557.91
2023-01-04T15:47:16.639Z,100560.47
2023-01-04T15:49:44.854Z,100556.69
2023-01-04T15:52:17.674Z,100554.52
2023-01-04T15:54:47.821Z,100553.84
2023-01-04T15:57:20.999Z,100547.56
2023-01-04T15:59:51.983Z,100541.13
2023-01-04T16:02:25.336Z,100541.64
2023-01-04T16:05:00.633Z,100533.61
2023-01-04T16:07:34.512Z,100533.09
2023-01-04T16:10:09.088Z,100526.65
2023-01-04T16:12:52.981Z,100529.85
2023-01-04T16:15:24.923Z,100521.02
2023-01-04T16:17:53.667Z,100519.89
2023-01-04T16:20:28.291Z,100509.17
2023-01-04T16:23:03.465Z,100508.88
2023-01-04T16:25:43.194Z,100499.48
2023-01-04T16:28:17.739Z,100493.52
2023-01-04T16:30:53.264Z,100499.85
2023-01-04T16:33:25.524Z,100497.09
2023-01-04T16:36:07.668Z,100498.02
2023-01-04T16:38:43.949Z,100499.85
2023-01-04T16:41:28.608Z,100501.70
2023-01-04T16:44:01.083Z,100494.99
2023-01-04T16:46:32.907Z,100499.12
2023-01-04T16:49:09.907Z,100494.52
2023-01-04T16:51:41.857Z,100488.10
2023-01-04T16:54:18.456Z,100483.98
2023-01-04T16:56:49.635Z,100475.61
2023-01-04T16:59:20.106Z,100486.45
2023-01-04T17:01:55.849Z,100482.56
2023-01-04T17:04:26.443Z,100474.34
2023-01-04T17:06:59.528Z,100471.66
2023-01-04T17:09:28.606Z,100475.45
2023-01-04T17:15:00.645Z,100464.42
2023-01-04T17:17:38.378Z,100452.80
2023-01-04T17:20:13.187Z,100448.04
2023-01-04T17:22:42.195Z,100438.59
2023-01-04T17:25:10.992Z,100441.91
2023-01-04T17:27:40.138Z,100438.94
2023-01-04T17:30:10.118Z,100438.56
2023-01-04T17:32:39.935Z,100435.88
2023-01-04T17:35:09.375Z,100436.23
2023-01-04T17:37:40.409Z,100426.57
2023-01-04T17:40:10.312Z,100429.41
2023-01-04T17:42:39.251Z,100413.94
2023-01-04T17:45:09.538Z,100407.79
2023-01-04T17:47:38.359Z,100417.83
2023-01-04T17:50:07.217Z,100406.45
2023-01-04T17:52:36.543Z,100404.84
2023-01-04T17:55:06.226Z,100402.29
2023-01-04T17:57:36.091Z,100399.63
2023-01-04T18:00:05.118Z,100398.21
2023-01-04T18:02:34.486Z,100395.86
2023-01-04T18:05:04.339Z,100381.50
2023-01-04T18:07:35.125Z,100375.39
2023-01-04T18:10:20.798Z,100373.36
2023-01-04T18:12:52.012Z,100361.02
2023-01-04T18:15:20.487Z,100353.02
2023-01-04T18:17:49.035Z,100354.65
2023-01-04T18:20:24.653Z,100353.48
2023-01-04T18:22:57.275Z,100342.73
2023-01-04T18:25:26.503Z,100340.67
2023-01-04T18:27:55.061Z,100339.65
2023-01-04T18:30:24.063Z,100344.48
2023-01-04T18:32:56.655Z,100335.77
2023-01-04T18:35:29.116Z,100327.88
2023-01-04T18:38:06.820Z,100331.04
2023-01-04T18:40:35.155Z,100307.59
2023-01-04T18:43:03.415Z,100313.45
2023-01-04T18:45:31.868Z,100309.05
2023-01-04T18:48:00.486Z,100310.98
2023-01-04T18:50:28.971Z,100294.48
2023-01-04T18:52:58.384Z,100285.50
2023-01-04T18:55:33.791Z,100285.72
2023-01-04T18:58:03.799Z,100289.45
2023-01-04T19:00:33.227Z,100296.00
2023-01-04T19:03:04.845Z,100287.11
2023-01-04T19:05:48.499Z,100286.38
2023-01-04T19:08:18.812Z,100289.67
2023-01-04T19:10:55.125Z,100287.88
2023-01-04T19:13:24.531Z,100279.55
2023-01-04T19:15:53.374Z,100285.63
2023-01-04T19:18:22.963Z,100287.40
2023-01-04T19:20:52.199Z,100277.92
2023-01-04T19:23:21.615Z,100268.80
2023-01-04T19:25:50.135Z,100269.83
2023-01-04T19:28:18.775Z,100264.96
2023-01-04T19:30:47.335Z,100258.85
2023-01-04T19:33:16.411Z,100251.23
2023-01-04T19:35:48.128Z,100242.85
2023-01-04T19:38:18.359Z,100244.70
2023-01-04T19:40:58.698Z,100234.48
2023-01-04T19:43:28.538Z,100237.45
2023-01-04T19:45:57.407Z,100233.05
2023-01-04T19:48:26.546Z,100226.09
2023-01-04T19:51:08.744Z,100228.31
2023-01-04T19:53:38.653Z,100223.04
2023-01-04T19:56:09.032Z,100228.16
2023-01-04T19:58:39.534Z,100220.93
2023-01-04T20:01:12.489Z,100208.92
2023-01-04T20:03:43.090Z,100213.74
2023-01-04T20:06:14.809Z,100203.97
2023-01-04T20:08:45.274Z,100191.31
2023-01-04T20:11:14.222Z,100192.66
2023-01-04T20:13:43.118Z,100191.70
2023-01-04T20:16:14.865Z,100190.16
2023-01-04T20:18:52.031Z,100183.86
2023-01-04T20:21:23.374Z,100181.84
2023-01-04T20:23:52.739Z,100174.16
2023-01-04T20:26:21.610Z,100173.86
2023-01-04T20:28:50.714Z,100168.37
2023-01-04T20:31:19.798Z,100171.98
2023-01-04T20:33:48.045Z,100169.92
2023-01-04T20:36:21.951Z,100165.10
2023-01-04T20:38:51.243Z,100160.87
2023-01-04T20:41:23.513Z,100166.66
2023-01-04T20:43:53.735Z,100165.50
2023-01-04T20:46:25.215Z,100168.71
2023-01-04T20:48:56.515Z,100166.17
2023-01-04T20:51:28.630Z,100158.37
2023-01-04T20:54:01.528Z,100162.98
2023-01-04T20:56:31.667Z,100156.96
2023-01-04T20:59:00.067Z,100152.54
2023-01-04T21:01:28.472Z,100156.56
2023-01-04T21:03:56.972Z,100152.05
2023-01-04T21:06:26.387Z,100148.92
2023-01-04T21:08:56.168Z,100148.77
2023-01-04T21:11:24.578Z,100136.28
2023-01-04T21:13:53.256Z,100138.79
2023-01-04T21:16:22.425Z,100142.77
2023-01-04T21:18:51.380Z,100129.30
2023-01-04T21:21:21.250Z,100128.69
2023-01-04T21:23:56.050Z,100126.23
2023-01-04T21:26:26.221Z,100119.77
2023-01-04T21:28:54.351Z,100119.60
2023-01-04T21:31:25.009Z,100115.59
2023-01-04T21:33:54.621Z,100116.47
2023-01-04T21:36:27.765Z,100113.14
2023-01-04T21:38:58.680Z,100114.02
2023-01-04T21:41:27.505Z,100105.27
2023-01-04T21:43:57.958Z,100096.86
2023-01-04T21:46:27.011Z,100101.02
2023-01-04T21:48:58.448Z,100097.27
2023-01-04T21:51:30.681Z,100091.27
2023-01-04T21:53:59.489Z,100080.28
2023-01-04T21:56:28.263Z,100078.77
2023-01-04T21:58:57.455Z,100071.34
2023-01-04T22:01:34.177Z,100061.50
2023-01-04T22:04:03.260Z,100060.64
2023-01-04T22:06:33.276Z,100056.25
2023-01-04T22:09:01.467Z,100048.28
2023-01-04T22:11:29.907Z,100050.92
2023-01-04T22:13:57.963Z,100036.79
2023-01-04T22:16:25.988Z,100028.30
2023-01-04T22:18:54.018Z,100025.36
2023-01-04T22:21:26.713Z,100028.20
2023-01-04T22:23:55.326Z,100027.67
2023-01-04T22:26:23.280Z,100023.20
2023-01-04T22:28:51.207Z,100021.03
2023-01-04T22:31:19.196Z,100019.70
2023-01-04T22:33:48.240Z,100020.20
2023-01-04T22:36:22.771Z,100017.54
2023-01-04T22:38:53.851Z,100026.41
2023-01-04T22:41:24.299Z,100012.35
2023-01-04T22:44:05.149Z,100012.94
2023-01-04T22:46:35.201Z,100005.03
2023-01-04T22:49:03.860Z,100014.29
2023-01-04T22:51:33.553Z,100015.27
2023-01-04T22:54:02.440Z,100015.48
2023-01-04T22:56:30.738Z,100022.02
2023-01-04T22:58:59.555Z,100021.60
2023-01-04T23:01:30.905Z,100021.42
2023-01-04T23:04:00.955Z,100005.89
2023-01-04T23:06:30.984Z,100011.42
2023-01-04T23:09:02.049Z,100012.95
2023-01-04T23:11:32.091Z,100015.52
2023-01-04T23:14:03.443Z,100007.98
2023-01-04T23:16:33.383Z,100008.45
2023-01-04T23:19:02.479Z,100001.45
2023-01-04T23:21:31.887Z,100002.17
2023-01-04T23:24:02.757Z,100007.52
2023-01-04T23:26:32.296Z,99992.21
2023-01-04T23:29:01.559Z,99997.55
2023-01-04T23:31:32.618Z,99990.77
2023-01-04T23:34:03.629Z,99981.77
2023-01-04T23:36:34.548Z,99982.23
2023-01-04T23:39:06.599Z,99975.27
2023-01-04T23:41:47.829Z,99973.36
2023-01-04T23:47:01.148Z,99972.50
2023-01-04T23:49:31.824Z,99963.95
2023-01-04T23:52:00.780Z,99963.56
2023-01-04T23:54:28.995Z,99970.45
2023-01-04T23:56:56.977Z,99979.98
2023-01-04T23:59:25.689Z,99986.14
